Time;durP1;ratioP1;P1;durP2;ratioP2;P2;SDS_P1;SDS_P2;PMS_P1;PMS_P2;Temp;Humidity;BMP_temperature;BMP_pressure;BME280_temperature;BME280_humidity;BME280_pressure;Samples;Min_cycle;Max_cycle;Signal;HPM_P1;HPM_P2
2021/10/22 00:00:57;;;;;;;;;;;8.00;92.80;;;;;;6256508;28;19925;-82
2021/10/22 00:03:58;;;;;;;;;;;7.90;92.70;;;;;;6255835;28;20147;-82
2021/10/22 00:07:00;;;;;;;;;;;7.90;92.60;;;;;;6255748;28;19931;-82
2021/10/22 00:10:03;;;;;;;;;;;7.80;92.50;;;;;;6256792;28;19936;-82
2021/10/22 00:13:05;;;;;;;;;;;7.70;92.50;;;;;;6258848;28;20442;-82
2021/10/22 00:16:07;;;;;;;;;;;7.60;92.50;;;;;;6249721;28;19929;-81
2021/10/22 00:19:08;;;;;;;;;;;7.60;92.60;;;;;;6233448;28;19985;-80
2021/10/22 00:22:10;;;;;;;;;;;7.50;92.50;;;;;;6233846;28;20072;-81
2021/10/22 00:25:13;;;;;;;;;;;7.50;92.50;;;;;;6232911;28;19933;-82
2021/10/22 00:28:15;;;;;;;;;;;7.40;92.50;;;;;;6233995;28;19940;-82
2021/10/22 00:31:17;;;;;;;;;;;7.40;92.50;;;;;;6233536;28;19925;-82
2021/10/22 00:34:18;;;;;;;;;;;7.30;92.40;;;;;;6257215;28;19925;-81
2021/10/22 00:37:21;;;;;;;;;;;7.20;92.40;;;;;;6250576;28;19925;-82
2021/10/22 00:40:25;;;;;;;;;;;7.10;92.40;;;;;;6257445;28;20028;-82
2021/10/22 00:43:29;;;;;;;;;;;7.10;92.40;;;;;;6256986;28;19932;-82
2021/10/22 00:46:33;;;;;;;;;;;7.00;92.40;;;;;;6257924;28;20291;-81
2021/10/22 00:49:34;;;;;;;;;;;7.00;92.40;;;;;;6258438;28;19925;-82
2021/10/22 00:52:36;;;;;;;;;;;6.90;92.30;;;;;;6257842;28;19925;-82
2021/10/22 00:55:40;;;;;;;;;;;6.90;92.20;;;;;;6256675;28;19925;-81
2021/10/22 00:58:42;;;;;;;;;;;6.80;92.20;;;;;;6256984;28;19925;-81
2021/10/22 01:01:44;;;;;;;;;;;6.70;92.20;;;;;;6257059;28;19925;-82
2021/10/22 01:04:45;;;;;;;;;;;6.70;92.20;;;;;;6257161;28;19935;-81
2021/10/22 01:07:47;;;;;;;;;;;6.60;92.20;;;;;;6254222;28;19925;-81
2021/10/22 01:10:50;;;;;;;;;;;6.60;92.30;;;;;;6252052;28;19931;-80
2021/10/22 01:13:52;;;;;;;;;;;6.50;92.20;;;;;;6251953;28;20333;-81
2021/10/22 01:16:53;;;;;;;;;;;6.50;92.20;;;;;;6242513;28;20000;-80
2021/10/22 01:19:55;;;;;;;;;;;6.40;92.30;;;;;;6248360;28;19925;-82
2021/10/22 01:22:58;;;;;;;;;;;6.40;92.40;;;;;;6252527;28;20059;-82
2021/10/22 01:26:00;;;;;;;;;;;6.30;92.40;;;;;;6252567;28;19925;-80
2021/10/22 01:29:01;;;;;;;;;;;6.30;92.40;;;;;;6251993;28;19925;-81
2021/10/22 01:32:03;;;;;;;;;;;6.10;92.30;;;;;;6252270;28;19925;-81
2021/10/22 01:35:06;;;;;;;;;;;6.10;92.40;;;;;;6252173;28;20044;-81
2021/10/22 01:38:09;;;;;;;;;;;6.10;92.40;;;;;;6249264;28;20518;-81
2021/10/22 01:41:10;;;;;;;;;;;6.10;92.40;;;;;;6251189;28;19931;-81
2021/10/22 01:44:13;;;;;;;;;;;6.10;92.50;;;;;;6252144;28;20215;-82
2021/10/22 01:47:15;;;;;;;;;;;6.00;92.50;;;;;;6252748;28;20272;-81
2021/10/22 01:50:16;;;;;;;;;;;6.00;92.50;;;;;;6251529;28;19925;-80
2021/10/22 01:53:19;;;;;;;;;;;6.00;92.50;;;;;;6251849;28;19929;-82
2021/10/22 01:56:21;;;;;;;;;;;5.90;92.40;;;;;;6252022;28;19932;-81
2021/10/22 01:59:23;;;;;;;;;;;5.90;92.40;;;;;;6251538;28;20016;-80
2021/10/22 02:02:24;;;;;;;;;;;5.80;92.30;;;;;;6251023;28;19925;-82
2021/10/22 02:05:26;;;;;;;;;;;5.80;92.30;;;;;;6252287;28;19925;-82
2021/10/22 02:08:29;;;;;;;;;;;5.70;92.20;;;;;;6251461;28;19935;-82
2021/10/22 02:11:31;;;;;;;;;;;5.60;92.10;;;;;;6251264;28;20032;-81
2021/10/22 02:14:32;;;;;;;;;;;5.60;92.10;;;;;;6251137;28;19931;-81
2021/10/22 02:17:34;;;;;;;;;;;5.60;92.20;;;;;;6247037;28;19925;-81
2021/10/22 02:20:38;;;;;;;;;;;5.50;92.30;;;;;;6245192;28;19932;-81
2021/10/22 02:23:41;;;;;;;;;;;5.50;92.40;;;;;;6253931;28;19930;-81
2021/10/22 02:26:43;;;;;;;;;;;5.50;92.40;;;;;;6256248;28;19925;-81
2021/10/22 02:29:44;;;;;;;;;;;5.50;92.40;;;;;;6256256;28;19925;-82
2021/10/22 02:32:46;;;;;;;;;;;5.40;92.40;;;;;;6255605;28;19925;-80
2021/10/22 02:35:48;;;;;;;;;;;5.40;92.40;;;;;;6257378;28;19925;-82
2021/10/22 02:38:51;;;;;;;;;;;5.30;92.30;;;;;;6256990;28;19933;-81
2021/10/22 02:41:52;;;;;;;;;;;5.30;92.40;;;;;;6257070;28;19932;-82
2021/10/22 02:44:54;;;;;;;;;;;5.30;92.40;;;;;;6257039;28;19932;-82
2021/10/22 02:47:55;;;;;;;;;;;5.20;92.40;;;;;;6255566;28;19932;-81
2021/10/22 02:50:57;;;;;;;;;;;5.20;92.50;;;;;;6255408;28;20067;-80
2021/10/22 02:54:00;;;;;;;;;;;5.20;92.40;;;;;;6255668;28;19975;-82
2021/10/22 02:57:01;;;;;;;;;;;5.10;92.30;;;;;;6256617;28;19932;-81
2021/10/22 03:00:04;;;;;;;;;;;5.10;92.40;;;;;;6255250;28;20020;-81
2021/10/22 03:03:05;;;;;;;;;;;5.10;92.50;;;;;;6255208;28;19925;-82
2021/10/22 03:06:07;;;;;;;;;;;5.00;92.40;;;;;;6255255;28;19968;-82
2021/10/22 03:09:10;;;;;;;;;;;5.00;92.40;;;;;;6254407;28;19929;-81
2021/10/22 03:12:11;;;;;;;;;;;4.90;92.40;;;;;;6254762;28;19932;-81
2021/10/22 03:15:13;;;;;;;;;;;4.90;92.50;;;;;;6255452;28;19931;-81
2021/10/22 03:18:15;;;;;;;;;;;5.00;92.60;;;;;;6249970;28;19961;-81
2021/10/22 03:21:16;;;;;;;;;;;4.90;92.60;;;;;;6233017;28;19929;-80
2021/10/22 03:24:19;;;;;;;;;;;5.00;92.70;;;;;;6230183;28;20590;-81
2021/10/22 03:27:22;;;;;;;;;;;4.90;92.60;;;;;;6230557;28;20023;-81
2021/10/22 03:30:24;;;;;;;;;;;4.90;92.60;;;;;;6230643;28;20056;-82
2021/10/22 03:33:25;;;;;;;;;;;4.90;92.50;;;;;;6230149;28;19997;-81
2021/10/22 03:36:27;;;;;;;;;;;4.80;92.60;;;;;;6229835;28;19989;-81
2021/10/22 03:39:30;;;;;;;;;;;4.90;92.80;;;;;;6230408;28;19929;-80
2021/10/22 03:42:32;;;;;;;;;;;4.90;92.90;;;;;;6229752;28;19925;-82
2021/10/22 03:45:34;;;;;;;;;;;5.00;92.90;;;;;;6230768;28;20410;-81
2021/10/22 03:48:35;;;;;;;;;;;5.00;92.90;;;;;;6229509;28;20008;-80
2021/10/22 03:51:37;;;;;;;;;;;4.90;92.90;;;;;;6230568;28;19926;-82
2021/10/22 03:54:40;;;;;;;;;;;5.00;93.20;;;;;;6230721;28;20454;-81
2021/10/22 03:57:41;;;;;;;;;;;5.00;92.90;;;;;;6230578;28;20000;-81
2021/10/22 04:00:43;;;;;;;;;;;5.00;92.90;;;;;;6229074;28;20012;-81
2021/10/22 04:03:45;;;;;;;;;;;5.00;93.00;;;;;;6230116;28;20008;-79
2021/10/22 04:06:46;;;;;;;;;;;5.10;93.00;;;;;;6254544;28;19932;-81
2021/10/22 04:09:49;;;;;;;;;;;5.10;93.00;;;;;;6253709;28;20379;-81
2021/10/22 04:12:51;;;;;;;;;;;5.10;93.10;;;;;;6254121;28;19925;-82
2021/10/22 04:15:53;;;;;;;;;;;5.10;93.10;;;;;;6253701;28;19932;-81
2021/10/22 04:18:54;;;;;;;;;;;5.20;93.10;;;;;;6250789;28;19932;-81
2021/10/22 04:21:56;;;;;;;;;;;5.10;93.10;;;;;;6234257;28;20008;-81
2021/10/22 04:24:59;;;;;;;;;;;5.10;93.10;;;;;;6229157;28;19933;-81
2021/10/22 04:28:00;;;;;;;;;;;5.10;93.10;;;;;;6229315;28;20390;-82
2021/10/22 04:31:02;;;;;;;;;;;5.20;93.20;;;;;;6229252;28;20368;-81
2021/10/22 04:34:04;;;;;;;;;;;5.10;93.10;;;;;;6229591;28;19979;-81
2021/10/22 04:37:23;;;;;;;;;;;5.10;93.10;;;;;;6229760;28;19926;-80
2021/10/22 04:40:32;;;;;;;;;;;5.10;93.00;;;;;;6229325;28;20406;-81
2021/10/22 04:43:34;;;;;;;;;;;5.10;93.10;;;;;;6230801;28;19926;-81
2021/10/22 04:46:35;;;;;;;;;;;5.00;93.10;;;;;;6229363;28;19932;-82
2021/10/22 04:49:37;;;;;;;;;;;5.00;93.10;;;;;;6229622;28;20012;-82
2021/10/22 04:52:39;;;;;;;;;;;5.00;93.20;;;;;;6229876;28;19948;-82
2021/10/22 04:55:42;;;;;;;;;;;5.00;93.10;;;;;;6229964;28;19925;-81
2021/10/22 04:58:47;;;;;;;;;;;5.00;93.10;;;;;;6227092;28;19932;-81
2021/10/22 05:01:48;;;;;;;;;;;5.00;93.20;;;;;;6228608;28;19936;-81
2021/10/22 05:04:50;;;;;;;;;;;5.00;93.10;;;;;;6229486;28;19965;-82
2021/10/22 05:07:52;;;;;;;;;;;5.00;93.20;;;;;;6228302;28;20390;-82
2021/10/22 05:10:55;;;;;;;;;;;5.00;93.20;;;;;;6227577;28;19926;-82
2021/10/22 05:13:56;;;;;;;;;;;5.00;93.20;;;;;;6230216;28;19925;-82
2021/10/22 05:16:58;;;;;;;;;;;5.00;93.30;;;;;;6229091;28;19932;-81
2021/10/22 05:20:00;;;;;;;;;;;5.00;93.40;;;;;;6230872;28;19929;-81
2021/10/22 05:23:01;;;;;;;;;;;5.00;93.40;;;;;;6232119;28;20071;-81
2021/10/22 05:26:04;;;;;;;;;;;5.00;93.70;;;;;;6230356;28;19985;-82
2021/10/22 05:29:06;;;;;;;;;;;5.00;93.40;;;;;;6231699;28;19925;-82
2021/10/22 05:32:07;;;;;;;;;;;5.00;93.40;;;;;;6232388;28;19933;-82
2021/10/22 05:35:09;;;;;;;;;;;5.00;93.50;;;;;;6232368;28;20031;-83
2021/10/22 05:38:11;;;;;;;;;;;5.00;93.50;;;;;;6233196;28;19925;-83
2021/10/22 05:41:14;;;;;;;;;;;5.00;93.50;;;;;;6232181;28;19930;-82
2021/10/22 05:44:18;;;;;;;;;;;5.00;93.50;;;;;;6233680;28;19932;-82
2021/10/22 05:47:19;;;;;;;;;;;5.00;93.50;;;;;;6231444;28;19936;-83
2021/10/22 05:50:21;;;;;;;;;;;5.00;93.50;;;;;;6230065;28;19977;-83
2021/10/22 05:53:22;;;;;;;;;;;5.00;93.50;;;;;;6231153;28;19929;-81
2021/10/22 05:56:25;;;;;;;;;;;4.90;93.40;;;;;;6230763;28;19992;-82
2021/10/22 05:59:27;;;;;;;;;;;4.90;93.50;;;;;;6230638;28;19999;-83
2021/10/22 06:02:29;;;;;;;;;;;4.90;93.50;;;;;;6230450;28;20288;-81
2021/10/22 06:05:30;;;;;;;;;;;4.90;93.60;;;;;;6230304;28;20029;-83
2021/10/22 06:08:32;;;;;;;;;;;4.90;93.70;;;;;;6229094;28;20010;-82
2021/10/22 06:11:35;;;;;;;;;;;5.00;93.80;;;;;;6231410;28;19985;-83
2021/10/22 06:14:38;;;;;;;;;;;5.00;93.80;;;;;;6231242;28;20013;-82
2021/10/22 06:17:39;;;;;;;;;;;5.10;94.00;;;;;;6231610;28;19961;-81
2021/10/22 06:20:47;;;;;;;;;;;5.20;94.20;;;;;;6230817;28;19932;-83
2021/10/22 06:23:54;;;;;;;;;;;5.30;94.30;;;;;;6247819;28;19925;-83
2021/10/22 06:26:57;;;;;;;;;;;5.40;94.30;;;;;;6254390;28;19925;-82
2021/10/22 06:29:59;;;;;;;;;;;5.40;94.20;;;;;;6252857;28;20276;-82
2021/10/22 06:33:01;;;;;;;;;;;5.40;94.10;;;;;;6253206;28;19933;-83
2021/10/22 06:36:03;;;;;;;;;;;5.30;94.10;;;;;;6254462;28;19947;-82
2021/10/22 06:39:04;;;;;;;;;;;5.30;94.00;;;;;;6253382;28;20375;-81
2021/10/22 06:42:07;;;;;;;;;;;5.30;94.00;;;;;;6252818;28;20487;-83
2021/10/22 06:45:09;;;;;;;;;;;5.30;94.10;;;;;;6253014;28;20012;-82
2021/10/22 06:48:11;;;;;;;;;;;5.40;94.20;;;;;;6252143;28;19940;-82
2021/10/22 06:51:13;;;;;;;;;;;5.50;94.40;;;;;;6254083;28;19929;-81
2021/10/22 06:54:15;;;;;;;;;;;5.70;94.60;;;;;;6253906;28;19953;-82
2021/10/22 06:57:18;;;;;;;;;;;5.90;94.80;;;;;;6252706;28;19925;-83
2021/10/22 07:00:20;;;;;;;;;;;6.00;94.80;;;;;;6250358;28;20305;-83
2021/10/22 07:03:25;;;;;;;;;;;6.00;94.80;;;;;;6252995;28;19926;-80
2021/10/22 07:09:46;;;;;;;;;;;6.20;94.80;;;;;;6252022;28;19921;-80
2021/10/22 07:12:49;;;;;;;;;;;6.40;95.00;;;;;;6264427;28;19952;-82
2021/10/22 07:15:51;;;;;;;;;;;6.60;95.00;;;;;;6257358;28;19931;-82
2021/10/22 07:18:53;;;;;;;;;;;6.70;95.10;;;;;;6256657;28;19925;-81
2021/10/22 07:21:59;;;;;;;;;;;6.80;95.10;;;;;;6255287;28;19956;-79
2021/10/22 07:25:01;;;;;;;;;;;6.90;95.10;;;;;;6248101;28;19925;-82
2021/10/22 07:28:08;;;;;;;;;;;6.90;95.10;;;;;;6258952;28;20310;-81
2021/10/22 07:31:11;;;;;;;;;;;7.00;95.10;;;;;;6264098;28;19951;-81
2021/10/22 07:34:14;;;;;;;;;;;7.10;95.30;;;;;;6264002;28;19933;-82
2021/10/22 07:37:16;;;;;;;;;;;7.30;95.40;;;;;;6260580;28;19925;-83
2021/10/22 07:40:18;;;;;;;;;;;7.70;95.70;;;;;;6259728;28;20332;-83
2021/10/22 07:43:21;;;;;;;;;;;8.20;95.80;;;;;;6258057;28;19948;-84
2021/10/22 07:46:22;;;;;;;;;;;8.40;95.70;;;;;;6255695;28;20550;-83
2021/10/22 07:49:24;;;;;;;;;;;8.50;95.60;;;;;;6259068;28;19932;-83
2021/10/22 07:52:28;;;;;;;;;;;8.40;95.30;;;;;;6261198;28;20008;-82
2021/10/22 07:55:29;;;;;;;;;;;8.20;95.40;;;;;;6261218;28;19925;-83
2021/10/22 07:58:32;;;;;;;;;;;8.10;95.20;;;;;;6258423;28;19925;-83
2021/10/22 08:01:34;;;;;;;;;;;8.00;95.30;;;;;;6258719;28;20394;-82
2021/10/22 08:04:35;;;;;;;;;;;7.90;95.20;;;;;;6263261;28;19925;-82
2021/10/22 08:07:38;;;;;;;;;;;8.00;95.40;;;;;;6259119;28;19931;-82
2021/10/22 08:10:40;;;;;;;;;;;8.60;96.00;;;;;;6260546;28;19929;-82
2021/10/22 08:13:43;;;;;;;;;;;9.10;96.00;;;;;;6260148;28;20003;-82
2021/10/22 08:16:44;;;;;;;;;;;8.90;95.50;;;;;;6257143;28;19931;-83
2021/10/22 08:19:51;;;;;;;;;;;8.60;95.00;;;;;;6259331;28;19926;-81
2021/10/22 08:22:53;;;;;;;;;;;8.40;95.00;;;;;;6253401;28;19957;-82
2021/10/22 08:25:55;;;;;;;;;;;8.10;95.00;;;;;;6237826;28;19925;-83
2021/10/22 08:28:58;;;;;;;;;;;8.10;95.20;;;;;;6232906;28;20016;-82
2021/10/22 08:32:00;;;;;;;;;;;8.10;95.30;;;;;;6247673;28;20031;-83
2021/10/22 08:35:01;;;;;;;;;;;8.00;95.20;;;;;;6260961;28;19932;-82
2021/10/22 08:38:06;;;;;;;;;;;8.00;95.30;;;;;;6259235;28;20427;-83
2021/10/22 08:41:08;;;;;;;;;;;8.10;95.50;;;;;;6257417;28;19925;-82
2021/10/22 08:44:12;;;;;;;;;;;8.20;95.50;;;;;;6258711;28;19955;-83
2021/10/22 08:47:13;;;;;;;;;;;8.30;95.60;;;;;;6258554;28;19925;-83
2021/10/22 08:50:16;;;;;;;;;;;8.40;95.70;;;;;;6258222;28;19940;-82
2021/10/22 08:53:18;;;;;;;;;;;8.60;95.70;;;;;;6259139;28;19956;-83
2021/10/22 08:56:20;;;;;;;;;;;8.60;95.70;;;;;;6258236;28;19949;-82
2021/10/22 08:59:23;;;;;;;;;;;8.70;95.70;;;;;;6257098;28;19971;-81
2021/10/22 09:02:26;;;;;;;;;;;8.50;95.40;;;;;;6256863;28;20282;-83
2021/10/22 09:05:28;;;;;;;;;;;8.30;95.30;;;;;;6255681;28;19933;-81
2021/10/22 09:08:31;;;;;;;;;;;8.10;95.30;;;;;;6255701;28;19929;-83
2021/10/22 09:11:34;;;;;;;;;;;8.00;95.50;;;;;;6255446;28;19925;-83
2021/10/22 09:14:38;;;;;;;;;;;8.40;96.10;;;;;;6253188;28;20318;-83
2021/10/22 09:17:40;;;;;;;;;;;8.80;96.30;;;;;;6256089;28;19929;-83
2021/10/22 09:20:48;;;;;;;;;;;8.90;96.10;;;;;;6252644;28;19975;-83
2021/10/22 09:23:49;;;;;;;;;;;9.00;96.10;;;;;;6255104;28;19976;-82
2021/10/22 09:26:52;;;;;;;;;;;9.20;96.10;;;;;;6239743;28;20399;-82
2021/10/22 09:29:55;;;;;;;;;;;9.30;96.00;;;;;;6230292;28;19925;-84
2021/10/22 09:32:58;;;;;;;;;;;9.30;95.90;;;;;;6252260;28;19925;-83
2021/10/22 09:36:00;;;;;;;;;;;9.40;95.90;;;;;;6253889;28;19968;-83
2021/10/22 09:39:08;;;;;;;;;;;9.70;96.10;;;;;;6254919;28;19932;-83
2021/10/22 09:42:11;;;;;;;;;;;10.20;96.40;;;;;;6253562;28;20380;-83
2021/10/22 09:45:23;;;;;;;;;;;10.40;96.30;;;;;;6253925;28;19933;-84
2021/10/22 09:48:26;;;;;;;;;;;10.60;96.20;;;;;;6253951;28;20064;-83
2021/10/22 09:51:29;;;;;;;;;;;10.70;96.50;;;;;;6253444;28;19932;-83
2021/10/22 09:54:31;;;;;;;;;;;10.90;96.30;;;;;;6251724;28;20022;-83
2021/10/22 09:57:33;;;;;;;;;;;11.20;96.40;;;;;;6250750;28;19931;-83
2021/10/22 10:00:36;;;;;;;;;;;11.50;96.40;;;;;;6251055;28;20363;-84
2021/10/22 10:03:39;;;;;;;;;;;11.50;96.30;;;;;;6253091;28;19932;-82
2021/10/22 10:06:43;;;;;;;;;;;11.40;96.00;;;;;;6252079;28;20456;-83
2021/10/22 10:09:45;;;;;;;;;;;11.30;95.80;;;;;;6251022;28;19929;-83
2021/10/22 10:12:46;;;;;;;;;;;11.20;95.70;;;;;;6252857;28;19925;-83
2021/10/22 10:15:49;;;;;;;;;;;11.10;95.60;;;;;;6252850;28;20313;-82
2021/10/22 10:18:54;;;;;;;;;;;11.10;95.60;;;;;;6255741;28;20365;-83
2021/10/22 10:21:58;;;;;;;;;;;11.10;95.80;;;;;;6253337;28;20188;-83
2021/10/22 10:25:01;;;;;;;;;;;11.40;96.10;;;;;;6251029;28;19926;-83
2021/10/22 10:28:02;;;;;;;;;;;11.60;96.10;;;;;;6253122;28;19992;-81
2021/10/22 10:31:24;;;;;;;;;;;11.60;96.10;;;;;;6256718;28;19931;-83
2021/10/22 10:34:40;;;;;;;;;;;11.50;95.30;;;;;;6257474;28;19925;-83
2021/10/22 10:37:42;;;;;;;;;;;11.30;95.00;;;;;;6257008;28;19929;-82
2021/10/22 10:40:44;;;;;;;;;;;11.40;95.50;;;;;;6254431;28;19929;-83
2021/10/22 10:43:45;;;;;;;;;;;11.60;95.70;;;;;;6257579;28;20121;-82
2021/10/22 10:46:48;;;;;;;;;;;11.70;95.70;;;;;;6262138;28;20460;-83
2021/10/22 10:50:00;;;;;;;;;;;11.90;95.80;;;;;;6261140;28;19929;-82
2021/10/22 10:53:01;;;;;;;;;;;12.10;95.80;;;;;;6262515;28;20368;-80
2021/10/22 10:56:04;;;;;;;;;;;12.10;95.30;;;;;;6261978;28;19948;-82
2021/10/22 10:59:06;;;;;;;;;;;12.00;94.90;;;;;;6259419;28;20014;-83
2021/10/22 11:02:09;;;;;;;;;;;11.90;94.70;;;;;;6264911;28;20004;-81
2021/10/22 11:05:11;;;;;;;;;;;11.90;94.70;;;;;;6264914;28;20007;-83
2021/10/22 11:08:13;;;;;;;;;;;12.00;94.80;;;;;;6264993;28;20031;-82
2021/10/22 11:11:26;;;;;;;;;;;12.00;94.70;;;;;;6264634;28;19929;-83
2021/10/22 11:14:40;;;;;;;;;;;12.00;94.50;;;;;;6261131;28;20011;-81
2021/10/22 11:17:43;;;;;;;;;;;12.00;94.60;;;;;;6259783;28;19929;-82
2021/10/22 11:20:48;;;;;;;;;;;12.10;94.40;;;;;;6259880;28;19925;-82
2021/10/22 11:23:50;;;;;;;;;;;12.20;94.30;;;;;;6261692;28;19996;-83
2021/10/22 11:26:55;;;;;;;;;;;12.30;94.40;;;;;;6254211;28;19956;-82
2021/10/22 11:29:57;;;;;;;;;;;12.50;94.70;;;;;;6236907;28;20384;-82
2021/10/22 11:33:01;;;;;;;;;;;12.70;94.40;;;;;;6255827;28;19929;-81
2021/10/22 11:36:03;;;;;;;;;;;12.70;94.10;;;;;;6263319;28;20044;-82
2021/10/22 11:39:16;;;;;;;;;;;12.60;93.80;;;;;;6261332;28;19925;-82
2021/10/22 11:42:21;;;;;;;;;;;12.60;93.60;;;;;;6260574;28;19925;-81
2021/10/22 11:45:23;;;;;;;;;;;12.60;93.50;;;;;;6259461;28;20301;-82
2021/10/22 11:48:32;;;;;;;;;;;12.60;93.60;;;;;;6260214;28;19925;-82
2021/10/22 11:51:34;;;;;;;;;;;12.70;93.40;;;;;;6259435;28;19932;-82
2021/10/22 11:54:36;;;;;;;;;;;12.70;93.10;;;;;;6257001;28;20418;-81
2021/10/22 11:57:38;;;;;;;;;;;12.70;92.60;;;;;;6254895;28;19925;-81
2021/10/22 12:00:48;;;;;;;;;;;12.60;92.60;;;;;;6255392;28;20296;-81
2021/10/22 12:03:55;;;;;;;;;;;12.60;92.90;;;;;;6255193;28;19929;-80
2021/10/22 12:07:01;;;;;;;;;;;12.70;93.10;;;;;;6254058;28;20033;-80
2021/10/22 12:10:04;;;;;;;;;;;12.90;93.80;;;;;;6253478;28;20055;-81
2021/10/22 12:13:05;;;;;;;;;;;13.00;93.30;;;;;;6254486;28;20020;-80
2021/10/22 12:16:10;;;;;;;;;;;13.00;92.90;;;;;;6254351;28;19968;-80
2021/10/22 12:19:14;;;;;;;;;;;13.10;93.40;;;;;;6255072;28;19931;-81
2021/10/22 12:22:16;;;;;;;;;;;13.50;93.60;;;;;;6252645;28;20298;-80
2021/10/22 12:25:20;;;;;;;;;;;13.50;92.70;;;;;;6251918;28;19925;-80
2021/10/22 12:28:21;;;;;;;;;;;13.50;92.20;;;;;;6241596;28;20008;-80
2021/10/22 12:31:28;;;;;;;;;;;13.30;91.60;;;;;;6239325;28;20354;-79
2021/10/22 12:34:32;;;;;;;;;;;13.20;91.70;;;;;;6245282;28;19925;-79
2021/10/22 12:37:36;;;;;;;;;;;13.00;91.80;;;;;;6253442;28;19932;-80
2021/10/22 12:40:39;;;;;;;;;;;13.00;92.20;;;;;;6252682;28;20274;-80
2021/10/22 12:43:41;;;;;;;;;;;13.00;92.10;;;;;;6251830;28;20067;-79
2021/10/22 12:46:51;;;;;;;;;;;12.90;91.70;;;;;;6252470;28;20464;-80
2021/10/22 12:49:54;;;;;;;;;;;12.80;91.30;;;;;;6252716;28;19965;-80
2021/10/22 12:52:56;;;;;;;;;;;12.70;91.30;;;;;;6253532;28;20011;-80
2021/10/22 12:56:18;;;;;;;;;;;12.60;90.80;;;;;;6252604;28;21883;-79
2021/10/22 12:59:23;;;;;;;;;;;12.60;91.40;;;;;;6252855;28;19984;-80
2021/10/22 13:02:25;;;;;;;;;;;12.60;91.20;;;;;;6250977;28;20291;-80
2021/10/22 13:05:33;;;;;;;;;;;12.70;91.40;;;;;;6253182;28;19916;-79
2021/10/22 13:08:40;;;;;;;;;;;12.80;91.70;;;;;;6250397;28;19948;-79
2021/10/22 13:12:04;;;;;;;;;;;12.90;91.30;;;;;;6251775;28;19925;-79
2021/10/22 13:15:34;;;;;;;;;;;12.90;90.40;;;;;;6251036;28;20015;-79
2021/10/22 13:22:10;;;;;;;;;;;12.90;91.00;;;;;;6222919;28;19985;-79
2021/10/22 13:25:12;;;;;;;;;;;13.20;90.60;;;;;;6224356;28;20059;-79
2021/10/22 13:28:17;;;;;;;;;;;13.20;90.40;;;;;;6248819;28;19932;-79
2021/10/22 13:31:20;;;;;;;;;;;13.20;90.10;;;;;;6248725;28;19979;-79
2021/10/22 13:34:22;;;;;;;;;;;13.30;89.70;;;;;;6252059;28;19925;-79
2021/10/22 13:37:25;;;;;;;;;;;13.30;89.20;;;;;;6254108;28;19929;-80
2021/10/22 13:40:26;;;;;;;;;;;13.30;89.20;;;;;;6254696;28;19926;-80
2021/10/22 13:43:28;;;;;;;;;;;13.30;88.80;;;;;;6258047;28;20008;-79
2021/10/22 13:46:30;;;;;;;;;;;13.30;88.50;;;;;;6254760;28;19925;-79
2021/10/22 13:49:32;;;;;;;;;;;13.30;87.30;;;;;;6253561;28;19925;-78
2021/10/22 13:52:35;;;;;;;;;;;13.10;85.60;;;;;;6252474;28;19988;-79
2021/10/22 13:55:37;;;;;;;;;;;13.00;84.60;;;;;;6253672;28;19932;-79
2021/10/22 13:58:39;;;;;;;;;;;13.00;85.90;;;;;;6252060;28;19925;-79
2021/10/22 14:01:40;;;;;;;;;;;13.10;84.90;;;;;;6251155;28;20048;-80
2021/10/22 14:04:42;;;;;;;;;;;13.00;83.60;;;;;;6234073;28;20008;-80
2021/10/22 14:07:45;;;;;;;;;;;13.00;83.90;;;;;;6228621;28;19929;-80
2021/10/22 14:10:48;;;;;;;;;;;13.00;83.60;;;;;;6227754;28;19926;-80
2021/10/22 14:13:53;;;;;;;;;;;13.20;83.70;;;;;;6226199;28;19926;-81
2021/10/22 14:17:00;;;;;;;;;;;13.50;81.50;;;;;;6226042;28;20495;-81
2021/10/22 14:30:15;;;;;;;;;;;14.50;74.40;;;;;;6233152;28;20345;-82
2021/10/22 14:33:17;;;;;;;;;;;14.20;75.30;;;;;;6250702;28;19964;-83
2021/10/22 14:36:18;;;;;;;;;;;14.10;76.50;;;;;;6249991;28;19936;-81
2021/10/22 14:39:25;;;;;;;;;;;14.10;79.10;;;;;;6251092;28;19929;-82
2021/10/22 14:42:29;;;;;;;;;;;14.30;76.00;;;;;;6249418;28;19940;-81
2021/10/22 14:45:39;;;;;;;;;;;14.20;74.30;;;;;;6249989;28;20314;-81
2021/10/22 14:48:44;;;;;;;;;;;14.20;74.50;;;;;;6249792;28;19957;-81
2021/10/22 14:52:02;;;;;;;;;;;13.90;73.70;;;;;;6249986;28;19981;-81
2021/10/22 14:55:14;;;;;;;;;;;13.60;72.30;;;;;;6249551;28;19929;-81
2021/10/22 14:58:17;;;;;;;;;;;13.30;72.60;;;;;;6249240;28;19925;-81
2021/10/22 15:01:22;;;;;;;;;;;13.20;70.40;;;;;;6247897;28;19932;-81
2021/10/22 15:04:23;;;;;;;;;;;13.00;67.60;;;;;;6248392;28;20391;-81
2021/10/22 15:07:25;;;;;;;;;;;12.90;67.40;;;;;;6250901;28;20402;-81
2021/10/22 15:10:30;;;;;;;;;;;12.80;67.20;;;;;;6248722;28;20299;-81
2021/10/22 15:13:32;;;;;;;;;;;12.70;67.50;;;;;;6248337;28;20474;-81
2021/10/22 15:16:33;;;;;;;;;;;12.60;67.30;;;;;;6248629;28;19929;-81
2021/10/22 15:19:36;;;;;;;;;;;12.60;67.20;;;;;;6249148;28;20007;-81
2021/10/22 15:22:38;;;;;;;;;;;12.40;66.80;;;;;;6248830;28;20417;-80
2021/10/22 15:25:41;;;;;;;;;;;12.30;67.00;;;;;;6248508;28;19975;-80
2021/10/22 15:28:42;;;;;;;;;;;12.30;66.80;;;;;;6251037;28;19931;-80
2021/10/22 15:31:44;;;;;;;;;;;12.10;67.20;;;;;;6250294;28;19930;-80
2021/10/22 15:34:45;;;;;;;;;;;12.00;67.90;;;;;;6253882;28;19925;-82
2021/10/22 15:37:47;;;;;;;;;;;12.00;68.20;;;;;;6253938;28;19925;-80
2021/10/22 15:40:50;;;;;;;;;;;12.00;67.90;;;;;;6252545;28;20290;-80
2021/10/22 15:43:52;;;;;;;;;;;11.90;68.20;;;;;;6253775;28;19925;-81
2021/10/22 15:47:00;;;;;;;;;;;11.70;68.80;;;;;;6254199;28;19929;-80
2021/10/22 15:50:02;;;;;;;;;;;11.50;69.30;;;;;;6253821;28;19932;-81
2021/10/22 15:53:04;;;;;;;;;;;11.30;70.10;;;;;;6253936;28;20017;-81
2021/10/22 15:56:07;;;;;;;;;;;11.20;70.80;;;;;;6253445;28;19955;-81
2021/10/22 15:59:09;;;;;;;;;;;11.10;71.40;;;;;;6253961;28;19925;-80
2021/10/22 16:02:11;;;;;;;;;;;11.10;71.70;;;;;;6252544;28;19926;-80
2021/10/22 16:05:13;;;;;;;;;;;11.20;71.80;;;;;;6253987;28;19925;-80
2021/10/22 16:08:27;;;;;;;;;;;11.10;72.10;;;;;;6253019;28;19925;-81
2021/10/22 16:11:40;;;;;;;;;;;11.20;71.90;;;;;;6254345;28;19931;-81
2021/10/22 16:14:56;;;;;;;;;;;11.30;72.00;;;;;;6253437;28;19975;-81
2021/10/22 16:18:01;;;;;;;;;;;11.30;72.00;;;;;;6233976;28;19925;-79
2021/10/22 16:21:02;;;;;;;;;;;11.40;71.70;;;;;;6231083;28;20023;-78
2021/10/22 16:27:27;;;;;;;;;;;11.50;68.60;;;;;;6337007;27;20403;-77
2021/10/22 16:30:28;;;;;;;;;;;11.30;69.30;;;;;;6282481;27;19931;-77
2021/10/22 16:37:41;;;;;;;;;;;11.70;69.30;;;;;;6150334;27;19921;-79
2021/10/22 16:40:43;;;;;;;;;;;11.50;69.20;;;;;;6228788;28;19932;-78
2021/10/22 16:43:44;;;;;;;;;;;11.30;69.70;;;;;;6290755;28;19925;-78
2021/10/22 16:46:46;;;;;;;;;;;11.10;70.20;;;;;;6268770;28;19936;-79
2021/10/22 16:49:48;;;;;;;;;;;11.00;70.50;;;;;;6269692;28;19925;-80
2021/10/22 16:52:51;;;;;;;;;;;10.90;71.00;;;;;;6270913;28;20000;-80
2021/10/22 16:55:53;;;;;;;;;;;11.20;70.00;;;;;;6268494;28;19996;-82
2021/10/22 16:58:55;;;;;;;;;;;12.10;67.50;;;;;;6273686;28;20082;-83
2021/10/22 17:02:00;;;;;;;;;;;12.00;66.50;;;;;;6264770;28;19935;-85
2021/10/22 17:05:01;;;;;;;;;;;12.00;66.20;;;;;;6253623;28;20038;-82
2021/10/22 17:08:04;;;;;;;;;;;12.00;66.80;;;;;;6270108;28;19925;-82
2021/10/22 17:11:06;;;;;;;;;;;12.20;65.90;;;;;;6271800;28;19999;-82
2021/10/22 17:14:08;;;;;;;;;;;12.20;64.80;;;;;;6273590;28;19965;-83
2021/10/22 17:17:09;;;;;;;;;;;12.20;65.20;;;;;;6273327;28;19961;-84
2021/10/22 17:20:11;;;;;;;;;;;12.20;64.70;;;;;;6275650;28;19933;-84
2021/10/22 17:23:14;;;;;;;;;;;12.20;64.20;;;;;;6277657;28;19928;-82
2021/10/22 17:26:16;;;;;;;;;;;12.50;64.50;;;;;;6278055;28;19929;-83
2021/10/22 17:29:17;;;;;;;;;;;12.30;64.30;;;;;;6281054;28;20006;-82
2021/10/22 17:32:22;;;;;;;;;;;12.30;64.10;;;;;;6294156;28;19925;-82
